sensor_id;sensor_type;location;lat;lon;timestamp;temperature;humidity
34829;DHT22;21042;47.620;12.188;2024-01-16T00:00:31;-0.60;99.90
34829;DHT22;21042;47.620;12.188;2024-01-16T00:02:57;-0.70;99.90
34829;DHT22;21042;47.620;12.188;2024-01-16T00:05:24;-0.70;99.90
34829;DHT22;21042;47.620;12.188;2024-01-16T00:07:51;-0.70;99.90
34829;DHT22;21042;47.620;12.188;2024-01-16T00:10:18;-0.80;99.90
34829;DHT22;21042;47.620;12.188;2024-01-16T00:12:45;-0.80;99.90
34829;DHT22;21042;47.620;12.188;2024-01-16T00:15:11;-0.90;99.90
34829;DHT22;21042;47.620;12.188;2024-01-16T00:17:38;-0.90;99.90
34829;DHT22;21042;47.620;12.188;2024-01-16T00:20:05;-1.00;99.90
34829;DHT22;21042;47.620;12.188;2024-01-16T00:22:32;-1.00;99.90
34829;DHT22;21042;47.620;12.188;2024-01-16T00:24:59;-1.00;99.90
34829;DHT22;21042;47.620;12.188;2024-01-16T00:27:26;-1.10;99.90
34829;DHT22;21042;47.620;12.188;2024-01-16T00:29:53;-1.20;99.90
34829;DHT22;21042;47.620;12.188;2024-01-16T00:32:19;-1.20;99.90
34829;DHT22;21042;47.620;12.188;2024-01-16T00:34:46;-1.20;99.90
34829;DHT22;21042;47.620;12.188;2024-01-16T00:37:13;-1.30;99.90
34829;DHT22;21042;47.620;12.188;2024-01-16T00:39:40;-1.20;99.90
34829;DHT22;21042;47.620;12.188;2024-01-16T00:42:07;-1.20;99.90
34829;DHT22;21042;47.620;12.188;2024-01-16T00:44:34;-1.30;99.90
34829;DHT22;21042;47.620;12.188;2024-01-16T00:47:01;-1.30;99.90
34829;DHT22;21042;47.620;12.188;2024-01-16T00:49:28;-1.30;99.90
34829;DHT22;21042;47.620;12.188;2024-01-16T00:51:56;-1.30;99.90
34829;DHT22;21042;47.620;12.188;2024-01-16T00:54:22;-1.40;99.90
34829;DHT22;21042;47.620;12.188;2024-01-16T00:56:49;-1.40;99.90
34829;DHT22;21042;47.620;12.188;2024-01-16T00:59:16;-1.50;99.90
34829;DHT22;21042;47.620;12.188;2024-01-16T01:01:43;-1.50;99.90
34829;DHT22;21042;47.620;12.188;2024-01-16T01:04:10;-1.60;99.90
34829;DHT22;21042;47.620;12.188;2024-01-16T01:06:37;-1.60;99.90
34829;DHT22;21042;47.620;12.188;2024-01-16T01:09:04;-1.60;99.90
34829;DHT22;21042;47.620;12.188;2024-01-16T01:11:30;-1.70;99.90
34829;DHT22;21042;47.620;12.188;2024-01-16T01:13:57;-1.70;99.90
34829;DHT22;21042;47.620;12.188;2024-01-16T01:16:24;-1.80;99.90
34829;DHT22;21042;47.620;12.188;2024-01-16T01:18:51;-1.90;99.90
34829;DHT22;21042;47.620;12.188;2024-01-16T01:21:18;-1.90;99.90
34829;DHT22;21042;47.620;12.188;2024-01-16T01:23:45;-2.00;99.90
34829;DHT22;21042;47.620;12.188;2024-01-16T01:26:12;-2.20;99.90
34829;DHT22;21042;47.620;12.188;2024-01-16T01:28:44;-2.40;99.90
34829;DHT22;21042;47.620;12.188;2024-01-16T01:31:11;-2.50;99.90
34829;DHT22;21042;47.620;12.188;2024-01-16T01:33:41;-2.40;99.90
34829;DHT22;21042;47.620;12.188;2024-01-16T01:36:09;-2.50;99.90
34829;DHT22;21042;47.620;12.188;2024-01-16T01:38:36;-2.60;99.90
34829;DHT22;21042;47.620;12.188;2024-01-16T01:41:03;-2.70;99.90
34829;DHT22;21042;47.620;12.188;2024-01-16T01:43:33;-2.80;99.90
34829;DHT22;21042;47.620;12.188;2024-01-16T01:46:14;-2.90;99.90
34829;DHT22;21042;47.620;12.188;2024-01-16T01:48:42;-3.00;99.90
34829;DHT22;21042;47.620;12.188;2024-01-16T01:51:13;-3.20;99.90
34829;DHT22;21042;47.620;12.188;2024-01-16T01:53:42;-3.30;99.90
34829;DHT22;21042;47.620;12.188;2024-01-16T01:56:14;-3.40;99.90
34829;DHT22;21042;47.620;12.188;2024-01-16T01:58:47;-3.40;99.90
34829;DHT22;21042;47.620;12.188;2024-01-16T02:01:15;-3.50;99.90
34829;DHT22;21042;47.620;12.188;2024-01-16T02:03:43;-3.60;99.90
34829;DHT22;21042;47.620;12.188;2024-01-16T02:06:14;-3.60;99.90
34829;DHT22;21042;47.620;12.188;2024-01-16T02:08:44;-3.70;99.90
34829;DHT22;21042;47.620;12.188;2024-01-16T02:11:11;-3.70;99.90
34829;DHT22;21042;47.620;12.188;2024-01-16T02:13:38;-3.70;99.90
34829;DHT22;21042;47.620;12.188;2024-01-16T02:16:05;-3.80;99.90
34829;DHT22;21042;47.620;12.188;2024-01-16T02:18:32;-3.90;99.90
34829;DHT22;21042;47.620;12.188;2024-01-16T02:21:05;-3.90;99.90
34829;DHT22;21042;47.620;12.188;2024-01-16T02:23:33;-3.90;99.90
34829;DHT22;21042;47.620;12.188;2024-01-16T02:26:01;-4.00;99.90
34829;DHT22;21042;47.620;12.188;2024-01-16T02:28:29;-4.10;99.90
34829;DHT22;21042;47.620;12.188;2024-01-16T02:30:56;-4.20;99.90
34829;DHT22;21042;47.620;12.188;2024-01-16T02:33:23;-4.20;99.90
34829;DHT22;21042;47.620;12.188;2024-01-16T02:35:50;-4.10;99.90
34829;DHT22;21042;47.620;12.188;2024-01-16T02:38:17;-4.00;99.90
34829;DHT22;21042;47.620;12.188;2024-01-16T02:40:43;-4.00;99.90
34829;DHT22;21042;47.620;12.188;2024-01-16T02:43:10;-4.10;99.90
34829;DHT22;21042;47.620;12.188;2024-01-16T02:45:37;-4.10;99.90
34829;DHT22;21042;47.620;12.188;2024-01-16T02:48:04;-4.10;99.90
34829;DHT22;21042;47.620;12.188;2024-01-16T02:50:32;-4.10;99.90
34829;DHT22;21042;47.620;12.188;2024-01-16T02:52:59;-4.10;99.90
34829;DHT22;21042;47.620;12.188;2024-01-16T02:55:25;-4.10;99.90
34829;DHT22;21042;47.620;12.188;2024-01-16T02:57:52;-4.00;99.90
34829;DHT22;21042;47.620;12.188;2024-01-16T03:00:19;-4.10;99.90
34829;DHT22;21042;47.620;12.188;2024-01-16T03:02:46;-4.10;99.90
34829;DHT22;21042;47.620;12.188;2024-01-16T03:05:15;-4.10;99.90
34829;DHT22;21042;47.620;12.188;2024-01-16T03:07:42;-4.00;99.90
34829;DHT22;21042;47.620;12.188;2024-01-16T03:10:09;-4.20;99.90
34829;DHT22;21042;47.620;12.188;2024-01-16T03:12:36;-4.20;99.90
34829;DHT22;21042;47.620;12.188;2024-01-16T03:15:03;-4.20;99.90
34829;DHT22;21042;47.620;12.188;2024-01-16T03:17:30;-4.20;99.90
34829;DHT22;21042;47.620;12.188;2024-01-16T03:19:57;-4.20;99.90
34829;DHT22;21042;47.620;12.188;2024-01-16T03:22:23;-4.10;99.90
34829;DHT22;21042;47.620;12.188;2024-01-16T03:24:51;-4.20;99.90
34829;DHT22;21042;47.620;12.188;2024-01-16T03:27:18;-4.20;99.90
34829;DHT22;21042;47.620;12.188;2024-01-16T03:29:45;-4.30;99.90
34829;DHT22;21042;47.620;12.188;2024-01-16T03:32:12;-4.30;99.90
34829;DHT22;21042;47.620;12.188;2024-01-16T03:34:39;-4.30;99.90
34829;DHT22;21042;47.620;12.188;2024-01-16T03:37:07;-4.20;99.90
34829;DHT22;21042;47.620;12.188;2024-01-16T03:39:33;-4.20;99.90
34829;DHT22;21042;47.620;12.188;2024-01-16T03:42:00;-4.20;99.90
34829;DHT22;21042;47.620;12.188;2024-01-16T03:44:27;-4.20;99.90
34829;DHT22;21042;47.620;12.188;2024-01-16T03:46:54;-4.20;99.90
34829;DHT22;21042;47.620;12.188;2024-01-16T03:49:21;-4.20;99.90
34829;DHT22;21042;47.620;12.188;2024-01-16T03:51:48;-4.20;99.90
34829;DHT22;21042;47.620;12.188;2024-01-16T03:54:15;-4.20;99.90
34829;DHT22;21042;47.620;12.188;2024-01-16T03:56:42;-4.20;99.90
34829;DHT22;21042;47.620;12.188;2024-01-16T03:59:09;-4.20;99.90
34829;DHT22;21042;47.620;12.188;2024-01-16T04:01:36;-4.20;99.90
34829;DHT22;21042;47.620;12.188;2024-01-16T04:04:05;-4.10;99.90
34829;DHT22;21042;47.620;12.188;2024-01-16T04:06:33;-4.10;99.90
34829;DHT22;21042;47.620;12.188;2024-01-16T04:09:00;-4.10;99.90
34829;DHT22;21042;47.620;12.188;2024-01-16T04:11:27;-4.20;99.90
34829;DHT22;21042;47.620;12.188;2024-01-16T04:13:55;-4.30;99.90
34829;DHT22;21042;47.620;12.188;2024-01-16T04:16:22;-4.30;99.90
34829;DHT22;21042;47.620;12.188;2024-01-16T04:18:48;-4.30;99.90
34829;DHT22;21042;47.620;12.188;2024-01-16T04:21:15;-4.30;99.90
34829;DHT22;21042;47.620;12.188;2024-01-16T04:23:46;-4.30;99.90
34829;DHT22;21042;47.620;12.188;2024-01-16T04:26:13;-4.30;99.90
34829;DHT22;21042;47.620;12.188;2024-01-16T04:28:40;-4.30;99.90
34829;DHT22;21042;47.620;12.188;2024-01-16T04:31:07;-4.30;99.90
34829;DHT22;21042;47.620;12.188;2024-01-16T04:33:34;-4.20;99.90
34829;DHT22;21042;47.620;12.188;2024-01-16T04:36:01;-4.20;99.90
34829;DHT22;21042;47.620;12.188;2024-01-16T04:38:27;-4.20;99.90
34829;DHT22;21042;47.620;12.188;2024-01-16T04:40:54;-4.10;99.90
34829;DHT22;21042;47.620;12.188;2024-01-16T04:43:22;-4.10;99.90
34829;DHT22;21042;47.620;12.188;2024-01-16T04:45:49;-4.10;99.90
34829;DHT22;21042;47.620;12.188;2024-01-16T04:48:15;-4.00;99.90
34829;DHT22;21042;47.620;12.188;2024-01-16T04:50:43;-4.10;99.90
34829;DHT22;21042;47.620;12.188;2024-01-16T04:53:11;-4.10;99.90
34829;DHT22;21042;47.620;12.188;2024-01-16T04:55:38;-4.10;99.90
34829;DHT22;21042;47.620;12.188;2024-01-16T04:58:05;-4.10;99.90
34829;DHT22;21042;47.620;12.188;2024-01-16T05:00:32;-4.10;99.90
34829;DHT22;21042;47.620;12.188;2024-01-16T05:02:59;-4.00;99.90
34829;DHT22;21042;47.620;12.188;2024-01-16T05:05:26;-4.10;99.90
34829;DHT22;21042;47.620;12.188;2024-01-16T05:07:55;-4.10;99.90
34829;DHT22;21042;47.620;12.188;2024-01-16T05:10:22;-4.20;99.90
34829;DHT22;21042;47.620;12.188;2024-01-16T05:12:49;-4.20;99.90
34829;DHT22;21042;47.620;12.188;2024-01-16T05:15:16;-4.10;99.90
34829;DHT22;21042;47.620;12.188;2024-01-16T05:17:43;-4.10;99.90
34829;DHT22;21042;47.620;12.188;2024-01-16T05:20:10;-4.00;99.90
34829;DHT22;21042;47.620;12.188;2024-01-16T05:22:37;-4.00;99.90
34829;DHT22;21042;47.620;12.188;2024-01-16T05:25:06;-3.90;99.90
34829;DHT22;21042;47.620;12.188;2024-01-16T05:27:34;-3.90;99.90
34829;DHT22;21042;47.620;12.188;2024-01-16T05:30:00;-3.90;99.90
34829;DHT22;21042;47.620;12.188;2024-01-16T05:32:28;-3.80;99.90
34829;DHT22;21042;47.620;12.188;2024-01-16T05:34:55;-3.80;99.90
34829;DHT22;21042;47.620;12.188;2024-01-16T05:37:22;-3.80;99.90
34829;DHT22;21042;47.620;12.188;2024-01-16T05:39:49;-3.80;99.90
34829;DHT22;21042;47.620;12.188;2024-01-16T05:42:16;-3.80;99.90
34829;DHT22;21042;47.620;12.188;2024-01-16T05:44:43;-3.80;99.90
34829;DHT22;21042;47.620;12.188;2024-01-16T05:47:10;-4.00;99.90
34829;DHT22;21042;47.620;12.188;2024-01-16T05:49:37;-4.10;99.90
34829;DHT22;21042;47.620;12.188;2024-01-16T05:52:04;-4.30;99.90
34829;DHT22;21042;47.620;12.188;2024-01-16T05:54:31;-4.40;99.90
34829;DHT22;21042;47.620;12.188;2024-01-16T05:56:57;-4.50;99.90
34829;DHT22;21042;47.620;12.188;2024-01-16T05:59:24;-4.60;99.90
34829;DHT22;21042;47.620;12.188;2024-01-16T06:01:52;-4.40;99.90
34829;DHT22;21042;47.620;12.188;2024-01-16T06:04:18;-4.20;99.90
34829;DHT22;21042;47.620;12.188;2024-01-16T06:06:45;-4.10;99.90
34829;DHT22;21042;47.620;12.188;2024-01-16T06:09:14;-3.90;99.90
34829;DHT22;21042;47.620;12.188;2024-01-16T06:11:41;-3.80;99.90
34829;DHT22;21042;47.620;12.188;2024-01-16T06:14:09;-3.70;99.90
34829;DHT22;21042;47.620;12.188;2024-01-16T06:16:36;-3.60;99.90
34829;DHT22;21042;47.620;12.188;2024-01-16T06:19:03;-3.50;99.90
34829;DHT22;21042;47.620;12.188;2024-01-16T06:21:31;-3.40;99.90
34829;DHT22;21042;47.620;12.188;2024-01-16T06:23:58;-3.40;99.90
34829;DHT22;21042;47.620;12.188;2024-01-16T06:26:25;-3.40;99.90
34829;DHT22;21042;47.620;12.188;2024-01-16T06:28:52;-3.50;99.90
34829;DHT22;21042;47.620;12.188;2024-01-16T06:31:18;-3.60;99.90
34829;DHT22;21042;47.620;12.188;2024-01-16T06:33:45;-3.60;99.90
34829;DHT22;21042;47.620;12.188;2024-01-16T06:36:12;-3.60;99.90
34829;DHT22;21042;47.620;12.188;2024-01-16T06:38:39;-3.70;99.90
34829;DHT22;21042;47.620;12.188;2024-01-16T06:41:07;-3.60;99.90
34829;DHT22;21042;47.620;12.188;2024-01-16T06:43:34;-3.50;99.90
34829;DHT22;21042;47.620;12.188;2024-01-16T06:46:01;-3.50;99.90
34829;DHT22;21042;47.620;12.188;2024-01-16T06:48:28;-3.40;99.90
34829;DHT22;21042;47.620;12.188;2024-01-16T06:50:56;-3.40;99.90
34829;DHT22;21042;47.620;12.188;2024-01-16T06:53:22;-3.30;99.90
34829;DHT22;21042;47.620;12.188;2024-01-16T06:55:50;-3.30;99.90
34829;DHT22;21042;47.620;12.188;2024-01-16T06:58:16;-3.30;99.90
34829;DHT22;21042;47.620;12.188;2024-01-16T07:00:43;-3.30;99.90
34829;DHT22;21042;47.620;12.188;2024-01-16T07:03:11;-3.30;99.90
34829;DHT22;21042;47.620;12.188;2024-01-16T07:05:38;-3.30;99.90
34829;DHT22;21042;47.620;12.188;2024-01-16T07:08:07;-3.30;99.90
34829;DHT22;21042;47.620;12.188;2024-01-16T07:10:34;-3.20;99.90
34829;DHT22;21042;47.620;12.188;2024-01-16T07:13:02;-3.20;99.90
34829;DHT22;21042;47.620;12.188;2024-01-16T07:15:29;-3.20;99.90
34829;DHT22;21042;47.620;12.188;2024-01-16T07:17:56;-3.30;99.90
34829;DHT22;21042;47.620;12.188;2024-01-16T07:20:23;-3.40;99.90
34829;DHT22;21042;47.620;12.188;2024-01-16T07:22:50;-3.30;99.90
34829;DHT22;21042;47.620;12.188;2024-01-16T07:25:17;-3.20;99.90
34829;DHT22;21042;47.620;12.188;2024-01-16T07:27:43;-3.20;99.90
34829;DHT22;21042;47.620;12.188;2024-01-16T07:30:13;-3.00;99.90
34829;DHT22;21042;47.620;12.188;2024-01-16T07:32:40;-2.90;99.90
34829;DHT22;21042;47.620;12.188;2024-01-16T07:35:07;-2.80;99.90
34829;DHT22;21042;47.620;12.188;2024-01-16T07:37:34;-2.80;99.90
34829;DHT22;21042;47.620;12.188;2024-01-16T07:40:01;-2.80;99.90
34829;DHT22;21042;47.620;12.188;2024-01-16T07:42:28;-2.70;99.90
34829;DHT22;21042;47.620;12.188;2024-01-16T07:45:01;-2.70;99.90
34829;DHT22;21042;47.620;12.188;2024-01-16T07:47:31;-2.70;99.90
34829;DHT22;21042;47.620;12.188;2024-01-16T07:49:59;-2.90;99.90
34829;DHT22;21042;47.620;12.188;2024-01-16T07:52:27;-3.10;99.90
34829;DHT22;21042;47.620;12.188;2024-01-16T07:54:55;-3.20;99.90
34829;DHT22;21042;47.620;12.188;2024-01-16T07:57:21;-3.30;99.90
34829;DHT22;21042;47.620;12.188;2024-01-16T07:59:48;-3.40;99.90
34829;DHT22;21042;47.620;12.188;2024-01-16T08:02:15;-3.40;99.90
34829;DHT22;21042;47.620;12.188;2024-01-16T08:04:42;-3.40;99.90
34829;DHT22;21042;47.620;12.188;2024-01-16T08:07:08;-3.50;99.90
34829;DHT22;21042;47.620;12.188;2024-01-16T08:09:35;-3.40;99.90
34829;DHT22;21042;47.620;12.188;2024-01-16T08:12:02;-3.30;99.90
34829;DHT22;21042;47.620;12.188;2024-01-16T08:14:29;-3.30;99.90
34829;DHT22;21042;47.620;12.188;2024-01-16T08:16:56;-3.20;99.90
34829;DHT22;21042;47.620;12.188;2024-01-16T08:19:23;-3.20;99.90
34829;DHT22;21042;47.620;12.188;2024-01-16T08:21:49;-3.30;99.90
34829;DHT22;21042;47.620;12.188;2024-01-16T08:24:16;-3.30;99.90
34829;DHT22;21042;47.620;12.188;2024-01-16T08:26:43;-3.20;99.90
34829;DHT22;21042;47.620;12.188;2024-01-16T08:29:10;-3.10;99.90
34829;DHT22;21042;47.620;12.188;2024-01-16T08:31:37;-3.20;99.90
34829;DHT22;21042;47.620;12.188;2024-01-16T08:34:04;-3.30;99.90
34829;DHT22;21042;47.620;12.188;2024-01-16T08:36:31;-3.30;99.90
34829;DHT22;21042;47.620;12.188;2024-01-16T08:38:58;-3.30;99.90
34829;DHT22;21042;47.620;12.188;2024-01-16T08:41:24;-3.20;99.90
34829;DHT22;21042;47.620;12.188;2024-01-16T08:43:51;-3.10;99.90
34829;DHT22;21042;47.620;12.188;2024-01-16T08:46:18;-2.80;99.90
34829;DHT22;21042;47.620;12.188;2024-01-16T08:48:46;-2.50;99.90
34829;DHT22;21042;47.620;12.188;2024-01-16T08:51:13;-2.30;99.90
34829;DHT22;21042;47.620;12.188;2024-01-16T08:53:40;-2.00;99.90
34829;DHT22;21042;47.620;12.188;2024-01-16T08:56:08;-1.90;99.90
34829;DHT22;21042;47.620;12.188;2024-01-16T08:58:35;-1.80;99.90
34829;DHT22;21042;47.620;12.188;2024-01-16T09:01:04;-1.70;99.90
34829;DHT22;21042;47.620;12.188;2024-01-16T09:03:32;-1.70;99.90
34829;DHT22;21042;47.620;12.188;2024-01-16T09:06:00;-1.70;99.90
34829;DHT22;21042;47.620;12.188;2024-01-16T09:08:27;-1.70;99.90
34829;DHT22;21042;47.620;12.188;2024-01-16T09:10:54;-1.70;99.90
34829;DHT22;21042;47.620;12.188;2024-01-16T09:13:21;-1.60;99.90
34829;DHT22;21042;47.620;12.188;2024-01-16T09:15:50;-1.60;99.90
34829;DHT22;21042;47.620;12.188;2024-01-16T09:18:16;-1.50;99.90
34829;DHT22;21042;47.620;12.188;2024-01-16T09:20:43;-1.20;99.90
34829;DHT22;21042;47.620;12.188;2024-01-16T09:23:10;-1.10;99.90
34829;DHT22;21042;47.620;12.188;2024-01-16T09:25:37;-0.90;99.90
34829;DHT22;21042;47.620;12.188;2024-01-16T09:28:04;-0.80;99.90
34829;DHT22;21042;47.620;12.188;2024-01-16T09:30:31;-0.70;99.90
34829;DHT22;21042;47.620;12.188;2024-01-16T09:32:59;-0.70;99.90
34829;DHT22;21042;47.620;12.188;2024-01-16T09:35:26;-0.70;99.90
34829;DHT22;21042;47.620;12.188;2024-01-16T09:37:53;-0.80;99.90
34829;DHT22;21042;47.620;12.188;2024-01-16T09:40:20;-0.80;99.90
34829;DHT22;21042;47.620;12.188;2024-01-16T09:42:47;-0.80;99.90
34829;DHT22;21042;47.620;12.188;2024-01-16T09:45:19;-0.70;99.90
34829;DHT22;21042;47.620;12.188;2024-01-16T09:47:47;-0.70;99.90
34829;DHT22;21042;47.620;12.188;2024-01-16T09:50:19;-0.50;99.90
34829;DHT22;21042;47.620;12.188;2024-01-16T09:52:47;-0.40;99.90
34829;DHT22;21042;47.620;12.188;2024-01-16T09:55:14;-0.60;99.90
34829;DHT22;21042;47.620;12.188;2024-01-16T09:57:44;-0.70;99.90
34829;DHT22;21042;47.620;12.188;2024-01-16T10:00:12;-0.70;99.90
34829;DHT22;21042;47.620;12.188;2024-01-16T10:02:40;-0.50;99.90
34829;DHT22;21042;47.620;12.188;2024-01-16T10:05:09;-0.60;99.90
34829;DHT22;21042;47.620;12.188;2024-01-16T10:07:41;-0.50;99.90
34829;DHT22;21042;47.620;12.188;2024-01-16T10:10:11;-0.30;99.90
34829;DHT22;21042;47.620;12.188;2024-01-16T10:12:40;-0.10;99.90
34829;DHT22;21042;47.620;12.188;2024-01-16T10:15:08;0.00;99.90
34829;DHT22;21042;47.620;12.188;2024-01-16T10:17:39;0.20;99.90
34829;DHT22;21042;47.620;12.188;2024-01-16T10:20:08;0.30;99.90
34829;DHT22;21042;47.620;12.188;2024-01-16T10:22:52;0.30;99.90
34829;DHT22;21042;47.620;12.188;2024-01-16T10:25:19;0.40;99.90
34829;DHT22;21042;47.620;12.188;2024-01-16T10:27:48;0.40;99.90
34829;DHT22;21042;47.620;12.188;2024-01-16T10:30:15;0.50;99.90
34829;DHT22;21042;47.620;12.188;2024-01-16T10:32:47;0.70;99.90
34829;DHT22;21042;47.620;12.188;2024-01-16T10:35:15;0.70;99.90
34829;DHT22;21042;47.620;12.188;2024-01-16T10:37:53;0.80;99.90
34829;DHT22;21042;47.620;12.188;2024-01-16T10:40:22;0.70;99.90
34829;DHT22;21042;47.620;12.188;2024-01-16T10:43:02;0.80;99.90
34829;DHT22;21042;47.620;12.188;2024-01-16T10:45:30;0.60;99.90
34829;DHT22;21042;47.620;12.188;2024-01-16T10:48:04;0.30;99.90
34829;DHT22;21042;47.620;12.188;2024-01-16T10:50:34;0.40;99.90
34829;DHT22;21042;47.620;12.188;2024-01-16T10:53:04;0.70;99.90
34829;DHT22;21042;47.620;12.188;2024-01-16T10:55:31;0.80;99.90
34829;DHT22;21042;47.620;12.188;2024-01-16T10:58:03;1.00;99.90
34829;DHT22;21042;47.620;12.188;2024-01-16T11:00:33;1.20;99.90
34829;DHT22;21042;47.620;12.188;2024-01-16T11:03:12;1.30;99.90
34829;DHT22;21042;47.620;12.188;2024-01-16T11:05:46;1.40;99.90
34829;DHT22;21042;47.620;12.188;2024-01-16T11:08:14;1.50;99.90
34829;DHT22;21042;47.620;12.188;2024-01-16T11:10:44;1.40;99.90
34829;DHT22;21042;47.620;12.188;2024-01-16T11:13:11;1.10;99.90
34829;DHT22;21042;47.620;12.188;2024-01-16T11:15:41;0.80;99.90
34829;DHT22;21042;47.620;12.188;2024-01-16T11:18:09;0.70;99.90
34829;DHT22;21042;47.620;12.188;2024-01-16T11:20:36;0.50;99.90
34829;DHT22;21042;47.620;12.188;2024-01-16T11:23:24;0.50;99.90
34829;DHT22;21042;47.620;12.188;2024-01-16T11:25:51;0.60;99.90
34829;DHT22;21042;47.620;12.188;2024-01-16T11:28:18;0.60;99.90
34829;DHT22;21042;47.620;12.188;2024-01-16T11:30:46;0.70;99.90
34829;DHT22;21042;47.620;12.188;2024-01-16T11:36:00;0.90;99.90
34829;DHT22;21042;47.620;12.188;2024-01-16T11:38:29;0.90;99.90
34829;DHT22;21042;47.620;12.188;2024-01-16T11:40:58;0.90;99.90
34829;DHT22;21042;47.620;12.188;2024-01-16T11:43:35;1.00;99.90
34829;DHT22;21042;47.620;12.188;2024-01-16T11:46:06;1.40;99.90
34829;DHT22;21042;47.620;12.188;2024-01-16T11:48:36;1.70;99.90
34829;DHT22;21042;47.620;12.188;2024-01-16T11:51:23;2.00;99.90
34829;DHT22;21042;47.620;12.188;2024-01-16T11:53:50;2.10;99.90
34829;DHT22;21042;47.620;12.188;2024-01-16T12:01:42;2.10;99.90
34829;DHT22;21042;47.620;12.188;2024-01-16T12:04:11;2.10;99.90
34829;DHT22;21042;47.620;12.188;2024-01-16T12:06:37;2.10;99.90
34829;DHT22;21042;47.620;12.188;2024-01-16T12:09:11;2.10;99.90
34829;DHT22;21042;47.620;12.188;2024-01-16T12:11:41;2.00;99.90
34829;DHT22;21042;47.620;12.188;2024-01-16T12:14:14;2.00;99.90
34829;DHT22;21042;47.620;12.188;2024-01-16T12:16:41;2.10;99.90
34829;DHT22;21042;47.620;12.188;2024-01-16T12:19:08;2.20;99.90
34829;DHT22;21042;47.620;12.188;2024-01-16T12:21:39;1.80;99.90
34829;DHT22;21042;47.620;12.188;2024-01-16T12:24:07;1.60;99.90
34829;DHT22;21042;47.620;12.188;2024-01-16T12:26:39;1.50;99.90
34829;DHT22;21042;47.620;12.188;2024-01-16T12:29:06;1.50;99.90
34829;DHT22;21042;47.620;12.188;2024-01-16T12:31:33;1.50;99.90
34829;DHT22;21042;47.620;12.188;2024-01-16T12:34:06;1.50;99.90
34829;DHT22;21042;47.620;12.188;2024-01-16T12:36:37;1.50;99.90
34829;DHT22;21042;47.620;12.188;2024-01-16T12:39:05;1.70;99.90
34829;DHT22;21042;47.620;12.188;2024-01-16T12:41:32;1.80;99.90
34829;DHT22;21042;47.620;12.188;2024-01-16T12:44:08;2.10;99.90
34829;DHT22;21042;47.620;12.188;2024-01-16T12:47:04;2.30;99.90
34829;DHT22;21042;47.620;12.188;2024-01-16T12:49:30;2.50;99.90
34829;DHT22;21042;47.620;12.188;2024-01-16T12:52:17;2.60;99.90
34829;DHT22;21042;47.620;12.188;2024-01-16T12:54:45;2.70;99.90
34829;DHT22;21042;47.620;12.188;2024-01-16T12:57:17;2.70;99.90
34829;DHT22;21042;47.620;12.188;2024-01-16T12:59:44;2.70;99.90
34829;DHT22;21042;47.620;12.188;2024-01-16T13:02:22;2.70;99.90
34829;DHT22;21042;47.620;12.188;2024-01-16T13:05:00;2.80;99.90
34829;DHT22;21042;47.620;12.188;2024-01-16T13:07:29;2.80;99.90
34829;DHT22;21042;47.620;12.188;2024-01-16T13:10:10;2.80;99.90
34829;DHT22;21042;47.620;12.188;2024-01-16T13:12:46;2.90;99.90
34829;DHT22;21042;47.620;12.188;2024-01-16T13:15:12;3.00;99.90
34829;DHT22;21042;47.620;12.188;2024-01-16T13:17:43;2.90;99.90
34829;DHT22;21042;47.620;12.188;2024-01-16T13:20:10;2.80;99.90
34829;DHT22;21042;47.620;12.188;2024-01-16T13:22:39;2.80;99.90
34829;DHT22;21042;47.620;12.188;2024-01-16T13:25:13;3.00;99.90
34829;DHT22;21042;47.620;12.188;2024-01-16T13:27:40;3.00;99.90
34829;DHT22;21042;47.620;12.188;2024-01-16T13:30:07;3.00;99.90
34829;DHT22;21042;47.620;12.188;2024-01-16T13:32:35;3.00;99.90
34829;DHT22;21042;47.620;12.188;2024-01-16T13:35:04;3.00;99.90
34829;DHT22;21042;47.620;12.188;2024-01-16T13:37:34;3.00;99.90
34829;DHT22;21042;47.620;12.188;2024-01-16T13:40:05;3.20;99.90
34829;DHT22;21042;47.620;12.188;2024-01-16T13:42:41;3.30;99.90
34829;DHT22;21042;47.620;12.188;2024-01-16T13:45:08;3.30;99.90
34829;DHT22;21042;47.620;12.188;2024-01-16T13:47:35;3.20;99.90
34829;DHT22;21042;47.620;12.188;2024-01-16T13:50:07;3.40;99.90
34829;DHT22;21042;47.620;12.188;2024-01-16T13:52:35;3.50;99.90
34829;DHT22;21042;47.620;12.188;2024-01-16T13:55:02;3.60;99.90
34829;DHT22;21042;47.620;12.188;2024-01-16T13:57:32;3.60;99.90
34829;DHT22;21042;47.620;12.188;2024-01-16T13:59:59;3.50;99.90
34829;DHT22;21042;47.620;12.188;2024-01-16T14:02:37;3.40;99.90
34829;DHT22;21042;47.620;12.188;2024-01-16T14:05:05;3.40;99.90
34829;DHT22;21042;47.620;12.188;2024-01-16T14:07:32;3.30;99.90
34829;DHT22;21042;47.620;12.188;2024-01-16T14:09:59;3.30;99.90
34829;DHT22;21042;47.620;12.188;2024-01-16T14:12:26;3.20;99.90
34829;DHT22;21042;47.620;12.188;2024-01-16T14:14:52;3.10;99.90
34829;DHT22;21042;47.620;12.188;2024-01-16T14:17:19;3.10;99.90
34829;DHT22;21042;47.620;12.188;2024-01-16T14:19:48;3.00;99.90
34829;DHT22;21042;47.620;12.188;2024-01-16T14:22:15;3.10;99.90
34829;DHT22;21042;47.620;12.188;2024-01-16T14:24:42;3.10;99.90
34829;DHT22;21042;47.620;12.188;2024-01-16T14:27:09;3.10;99.90
34829;DHT22;21042;47.620;12.188;2024-01-16T14:29:37;3.10;99.90
34829;DHT22;21042;47.620;12.188;2024-01-16T14:32:06;3.00;99.90
34829;DHT22;21042;47.620;12.188;2024-01-16T14:34:33;2.90;99.90
34829;DHT22;21042;47.620;12.188;2024-01-16T14:37:00;2.80;99.90
34829;DHT22;21042;47.620;12.188;2024-01-16T14:39:27;2.70;99.90
34829;DHT22;21042;47.620;12.188;2024-01-16T14:41:57;2.60;99.90
34829;DHT22;21042;47.620;12.188;2024-01-16T14:44:25;2.50;99.90
34829;DHT22;21042;47.620;12.188;2024-01-16T14:46:51;2.40;99.90
34829;DHT22;21042;47.620;12.188;2024-01-16T14:49:21;2.30;99.90
34829;DHT22;21042;47.620;12.188;2024-01-16T14:51:48;2.20;99.90
34829;DHT22;21042;47.620;12.188;2024-01-16T14:54:15;2.20;99.90
34829;DHT22;21042;47.620;12.188;2024-01-16T14:56:42;2.10;99.90
34829;DHT22;21042;47.620;12.188;2024-01-16T14:59:08;2.10;99.90
34829;DHT22;21042;47.620;12.188;2024-01-16T15:01:39;2.20;99.90
34829;DHT22;21042;47.620;12.188;2024-01-16T15:04:06;2.30;99.90
34829;DHT22;21042;47.620;12.188;2024-01-16T15:06:34;2.30;99.90
34829;DHT22;21042;47.620;12.188;2024-01-16T15:09:01;2.40;99.90
34829;DHT22;21042;47.620;12.188;2024-01-16T15:11:28;2.40;99.90
34829;DHT22;21042;47.620;12.188;2024-01-16T15:13:55;2.30;99.90
34829;DHT22;21042;47.620;12.188;2024-01-16T15:16:24;2.20;99.90
34829;DHT22;21042;47.620;12.188;2024-01-16T15:18:51;2.10;99.90
34829;DHT22;21042;47.620;12.188;2024-01-16T15:21:19;2.00;99.90
34829;DHT22;21042;47.620;12.188;2024-01-16T15:23:46;2.00;99.90
34829;DHT22;21042;47.620;12.188;2024-01-16T15:26:13;1.90;99.90
34829;DHT22;21042;47.620;12.188;2024-01-16T15:28:46;1.90;99.90
34829;DHT22;21042;47.620;12.188;2024-01-16T15:31:16;1.80;99.90
34829;DHT22;21042;47.620;12.188;2024-01-16T15:33:43;1.80;99.90